createdAt,value
2019-01-06T00:05:02.322Z,101363.98
2019-01-06T00:10:40.247Z,101361.28
2019-01-06T00:21:49.922Z,101349.95
2019-01-06T00:27:27.517Z,101345.76
2019-01-06T00:33:05.140Z,101334.66
2019-01-06T00:38:42.797Z,101351.08
2019-01-06T00:44:20.523Z,101347.82
2019-01-06T00:49:58.102Z,101354.55
2019-01-06T01:01:07.771Z,101363.28
2019-01-06T01:17:49.689Z,101358.77
2019-01-06T01:23:27.334Z,101364.72
2019-01-06T01:29:04.996Z,101365.55
2019-01-06T01:34:42.585Z,101368.03
2019-01-06T01:45:52.691Z,101378.09
2019-01-06T01:51:30.267Z,101383.02
2019-01-06T01:57:07.860Z,101374.29
2019-01-06T02:02:45.451Z,101376.50
2019-01-06T02:08:23.098Z,101377.13
2019-01-06T02:14:00.759Z,101376.86
2019-01-06T02:19:38.352Z,101377.22
2019-01-06T02:25:15.931Z,101379.70
2019-01-06T02:30:53.512Z,101383.80
2019-01-06T02:36:31.161Z,101378.66
2019-01-06T02:42:08.759Z,101376.17
2019-01-06T02:47:46.331Z,101372.83
2019-01-06T02:53:23.985Z,101381.29
2019-01-06T02:59:01.569Z,101382.84
2019-01-06T03:04:39.266Z,101380.55
2019-01-06T03:15:45.952Z,101384.16
2019-01-06T03:21:23.526Z,101379.70
2019-01-06T03:27:01.113Z,101379.20
2019-01-06T03:38:10.893Z,101362.17
2019-01-06T03:44:07.824Z,101359.55
2019-01-06T03:55:18.112Z,101356.34
2019-01-06T04:00:55.690Z,101346.30
2019-01-06T04:12:02.603Z,101343.66
2019-01-06T04:23:12.485Z,101339.23
2019-01-06T04:28:50.207Z,101343.09
2019-01-06T04:34:27.803Z,101340.34
2019-01-06T04:40:05.743Z,101337.47
2019-01-06T04:56:44.579Z,101333.05
2019-01-06T05:07:51.413Z,101325.63
2019-01-06T05:13:29.263Z,101330.56
2019-01-06T05:19:06.859Z,101327.09
2019-01-06T05:24:44.657Z,101334.15
2019-01-06T05:30:22.378Z,101341.09
2019-01-06T05:36:00.107Z,101331.31
2019-01-06T05:41:37.704Z,101334.51
2019-01-06T05:47:15.382Z,101338.09
2019-01-06T05:52:52.969Z,101337.38
2019-01-06T05:58:30.554Z,101347.91
2019-01-06T06:04:08.144Z,101356.42
2019-01-06T06:09:45.865Z,101357.47
2019-01-06T06:21:14.670Z,101371.85
2019-01-06T06:32:24.656Z,101370.42
2019-01-06T06:43:31.318Z,101380.95
2019-01-06T06:49:08.901Z,101350.89
2019-01-06T06:55:05.828Z,101356.78
2019-01-06T07:01:04.268Z,101363.22
2019-01-06T07:12:11.347Z,101360.11
2019-01-06T07:18:08.347Z,101352.95
2019-01-06T07:29:37.512Z,101363.38
2019-01-06T07:35:15.104Z,101365.17
2019-01-06T07:46:46.552Z,101378.59
2019-01-06T08:03:25.526Z,101399.64
2019-01-06T08:09:03.114Z,101403.42
2019-01-06T08:14:41.038Z,101412.64
2019-01-06T08:20:18.616Z,101411.65
2019-01-06T08:25:56.199Z,101421.22
2019-01-06T08:31:33.784Z,101420.37
2019-01-06T08:37:11.366Z,101421.22
2019-01-06T08:42:48.954Z,101431.12
2019-01-06T08:48:26.535Z,101430.89
2019-01-06T08:54:04.122Z,101431.37
2019-01-06T08:59:41.708Z,101438.27
2019-01-06T09:05:19.321Z,101438.63
2019-01-06T09:10:56.975Z,101444.00
2019-01-06T09:16:34.633Z,101438.38
2019-01-06T09:27:44.436Z,101439.31
2019-01-06T09:38:51.348Z,101447.42
2019-01-06T09:49:58.404Z,101456.37
2019-01-06T09:55:36.295Z,101455.89
2019-01-06T10:01:13.911Z,101456.63
2019-01-06T10:06:51.499Z,101462.21
2019-01-06T10:12:29.237Z,101465.47
2019-01-06T10:18:06.960Z,101465.78
2019-01-06T10:29:13.782Z,101460.87
2019-01-06T10:34:51.506Z,101462.56
2019-01-06T10:40:29.157Z,101463.92
2019-01-06T10:57:08.129Z,101476.59
2019-01-06T11:02:45.724Z,101469.69
2019-01-06T11:08:23.419Z,101474.04
2019-01-06T11:14:01.011Z,101485.20
2019-01-06T11:19:38.676Z,101481.87
2019-01-06T11:25:16.395Z,101480.86
2019-01-06T11:30:54.138Z,101472.88
2019-01-06T11:36:31.730Z,101481.92
2019-01-06T11:42:09.395Z,101484.17
2019-01-06T11:53:16.056Z,101476.84
2019-01-06T12:04:25.875Z,101471.56
2019-01-06T12:10:03.502Z,101469.58
2019-01-06T12:15:41.145Z,101466.06
2019-01-06T12:21:18.740Z,101459.36
2019-01-06T12:26:56.544Z,101468.58
2019-01-06T12:32:34.119Z,101462.95
2019-01-06T12:38:11.778Z,101458.58
2019-01-06T12:49:18.565Z,101451.38
2019-01-06T12:54:56.179Z,101456.64
2019-01-06T13:06:24.896Z,101462.27
2019-01-06T13:12:02.833Z,101465.49
2019-01-06T13:17:43.498Z,101467.44
2019-01-06T13:23:21.148Z,101468.27
2019-01-06T13:28:58.966Z,101468.13
2019-01-06T13:34:55.926Z,101467.05
2019-01-06T13:41:02.361Z,101469.80
2019-01-06T13:52:04.530Z,101477.97
2019-01-06T13:57:42.203Z,101483.92
2019-01-06T14:03:20.305Z,101487.49
2019-01-06T14:14:44.836Z,101498.50
2019-01-06T14:20:22.824Z,101495.22
2019-01-06T14:26:00.730Z,101499.13
2019-01-06T14:37:16.333Z,101504.25
2019-01-06T14:42:54.230Z,101502.34
2019-01-06T14:48:31.883Z,101508.44
2019-01-06T14:54:09.944Z,101514.04
2019-01-06T14:59:47.594Z,101512.41
2019-01-06T15:05:28.657Z,101513.56
2019-01-06T15:11:06.317Z,101518.88
2019-01-06T15:16:44.032Z,101527.37
2019-01-06T15:22:21.681Z,101536.83
2019-01-06T15:27:59.624Z,101535.84
2019-01-06T15:44:35.521Z,101531.84
2019-01-06T15:50:13.164Z,101532.32
2019-01-06T15:55:50.815Z,101528.63
2019-01-06T16:01:47.939Z,101536.22
2019-01-06T16:07:25.527Z,101537.64
2019-01-06T16:13:22.862Z,101532.37
2019-01-06T16:19:00.500Z,101537.41
2019-01-06T16:24:38.144Z,101539.74
2019-01-06T16:41:16.980Z,101536.05
2019-01-06T16:46:54.566Z,101546.84
2019-01-06T16:52:32.147Z,101542.80
2019-01-06T16:58:09.731Z,101545.47
2019-01-06T17:03:47.316Z,101547.95
2019-01-06T17:09:45.701Z,101550.84
2019-01-06T17:21:14.606Z,101560.36
2019-01-06T17:26:52.185Z,101557.47
2019-01-06T17:32:29.771Z,101566.42
2019-01-06T17:38:07.360Z,101560.47
2019-01-06T17:44:04.357Z,101562.15
2019-01-06T17:49:42.291Z,101556.84
2019-01-06T17:55:20.011Z,101558.78
2019-01-06T18:00:57.752Z,101568.47
2019-01-06T18:06:35.420Z,101569.38
2019-01-06T18:12:13.311Z,101577.31
2019-01-06T18:29:11.879Z,101581.01
2019-01-06T18:34:49.773Z,101582.36
2019-01-06T18:45:56.660Z,101582.62
2019-01-06T18:51:34.380Z,101591.94
2019-01-06T18:57:11.992Z,101592.89
2019-01-06T19:02:49.648Z,101591.58
2019-01-06T19:08:27.396Z,101590.52
2019-01-06T19:14:05.005Z,101587.41
2019-01-06T19:20:01.921Z,101590.84
2019-01-06T19:25:39.570Z,101599.94
2019-01-06T19:31:17.714Z,101601.03
2019-01-06T19:37:14.644Z,101593.84
2019-01-06T19:42:52.301Z,101599.61
2019-01-06T19:48:29.976Z,101608.31
2019-01-06T19:54:07.644Z,101603.56
2019-01-06T19:59:45.264Z,101603.92
2019-01-06T20:11:14.034Z,101599.22
2019-01-06T20:16:51.766Z,101597.31
2019-01-06T20:22:29.396Z,101592.30
2019-01-06T20:39:05.298Z,101603.92
2019-01-06T20:56:06.527Z,101614.34
2019-01-06T21:01:44.262Z,101619.13
2019-01-06T21:07:21.990Z,101613.86
2019-01-06T21:23:58.066Z,101620.91
2019-01-06T21:29:35.715Z,101611.11
2019-01-06T21:40:45.812Z,101616.41
2019-01-06T21:46:23.488Z,101630.63
2019-01-06T21:57:30.239Z,101626.59
2019-01-06T22:03:08.103Z,101634.34
2019-01-06T22:08:45.853Z,101623.48
2019-01-06T22:14:23.576Z,101621.44
2019-01-06T22:20:20.574Z,101612.00
2019-01-06T22:25:58.222Z,101612.00
2019-01-06T22:31:35.808Z,101608.19
2019-01-06T22:37:13.672Z,101609.36
2019-01-06T22:42:51.244Z,101609.61
2019-01-06T22:48:28.900Z,101610.33
2019-01-06T22:54:06.461Z,101610.91
2019-01-06T22:59:44.041Z,101602.91
2019-01-06T23:10:53.719Z,101598.25
2019-01-06T23:22:03.722Z,101604.75
2019-01-06T23:27:41.378Z,101610.48
2019-01-06T23:33:18.946Z,101601.98
2019-01-06T23:39:15.867Z,101609.39
2019-01-06T23:44:53.518Z,101606.98
2019-01-06T23:50:31.172Z,101609.02
2019-01-06T23:56:08.751Z,101619.69
